This is the latest recevied weather packets stored in our database for station/object KQ7A. If no packets are shown the sender has not sent any weather packets the latest 10 day(s).
| Time | Temp. | Humidity | Pressure | Rain* | Wind** | Luminosity | Snow |
|---|---|---|---|---|---|---|---|
| 1777705971 | 10° C | 56% | 1017.7 hPa | 0 mm | - | 0 W/m² | - |
| 1777705670 | 9.44° C | 55% | 1017.7 hPa | 0 mm | - | 0 W/m² | - |
| 1777705367 | 9.44° C | 61% | 1017.8 hPa | 0 mm | - | 0 W/m² | - |
| 1777705065 | 10° C | 50% | 1017.7 hPa | 0 mm | - | 0 W/m² | - |
| 1777704763 | 10.56° C | 53% | 1017.7 hPa | 0 mm | - | 0 W/m² | - |
| 1777704461 | 10° C | 55% | 1017.5 hPa | 0 mm | - | 0 W/m² | - |
| 1777704159 | 10° C | 54% | 1017.7 hPa | 0 mm | - | 0 W/m² | - |
| 1777703856 | 10.56° C | 57% | 1017.7 hPa | 0 mm | - | 0 W/m² | - |
| 1777703554 | 10° C | 59% | 1017.6 hPa | 0 mm | - | 0 W/m² | - |
| 1777703250 | 10° C | 62% | 1017.8 hPa | 0 mm | - | 0 W/m² | - |
| 1777702948 | 10° C | 65% | 1017.8 hPa | 0 mm | - | 0 W/m² | - |
| 1777702646 | 11.67° C | 52% | 1017.7 hPa | 0 mm | - | 0 W/m² | - |
| 1777702344 | 11.11° C | 46% | 1017.5 hPa | 0 mm | - | 0 W/m² | - |
| 1777702039 | 11.67° C | 50% | 1017.9 hPa | 0 mm | - | 0 W/m² | - |
| 1777701735 | 10° C | 56% | 1018.1 hPa | 0 mm | - | 0 W/m² | - |
| 1777701432 | 10° C | 61% | 1017.9 hPa | 0 mm | - | 0 W/m² | - |
| 1777701130 | 10.56° C | 60% | 1017.9 hPa | 0 mm | - | 0 W/m² | - |
| 1777700824 | 10.56° C | 59% | 1017.9 hPa | 0 mm | - | 0 W/m² | - |
| 1777700521 | 11.11° C | 51% | 1018.1 hPa | 0 mm | - | 0 W/m² | - |
| 1777700218 | 11.67° C | 53% | 1018.1 hPa | 0 mm | - | 0 W/m² | - |
| 1777699915 | 11.67° C | 51% | 1017.8 hPa | 0 mm | - | 0 W/m² | - |
| 1777699613 | 11.67° C | 52% | 1017.8 hPa | 0 mm | - | 0 W/m² | - |
| 1777699311 | 11.11° C | 57% | 1017.8 hPa | 0 mm | - | 0 W/m² | - |
| 1777699009 | 11.67° C | 55% | 1018.1 hPa | 0 mm | - | 0 W/m² | - |
| 1777698707 | 12.22° C | 53% | 1018.1 hPa | 0 mm | - | 0 W/m² | - |
* Rain latest hour (hover to see other rain measurements)
** Current wind speed in m/s (hover to see current wind gust speed)